sensor_id;sensor_type;location;lat;lon;timestamp;temperature;humidity
11615;DHT22;5863;52.832;4.758;2023-04-06T00:01:07;5.10;99.90
11615;DHT22;5863;52.832;4.758;2023-04-06T00:03:40;5.00;99.90
11615;DHT22;5863;52.832;4.758;2023-04-06T00:06:06;5.00;99.90
11615;DHT22;5863;52.832;4.758;2023-04-06T00:08:33;5.00;99.90
11615;DHT22;5863;52.832;4.758;2023-04-06T00:11:00;5.00;99.90
11615;DHT22;5863;52.832;4.758;2023-04-06T00:13:28;5.10;99.90
11615;DHT22;5863;52.832;4.758;2023-04-06T00:15:55;5.10;99.90
11615;DHT22;5863;52.832;4.758;2023-04-06T00:18:22;5.20;99.90
11615;DHT22;5863;52.832;4.758;2023-04-06T00:20:49;5.20;99.90
11615;DHT22;5863;52.832;4.758;2023-04-06T00:23:16;5.20;99.90
11615;DHT22;5863;52.832;4.758;2023-04-06T00:25:45;5.10;99.90
11615;DHT22;5863;52.832;4.758;2023-04-06T00:28:12;5.10;99.90
11615;DHT22;5863;52.832;4.758;2023-04-06T00:30:40;5.10;99.90
11615;DHT22;5863;52.832;4.758;2023-04-06T00:33:07;5.10;99.90
11615;DHT22;5863;52.832;4.758;2023-04-06T00:35:34;5.10;99.90
11615;DHT22;5863;52.832;4.758;2023-04-06T00:38:01;5.10;99.90
11615;DHT22;5863;52.832;4.758;2023-04-06T00:40:28;5.20;99.90
11615;DHT22;5863;52.832;4.758;2023-04-06T00:42:54;5.10;99.90
11615;DHT22;5863;52.832;4.758;2023-04-06T00:45:21;5.00;99.90
11615;DHT22;5863;52.832;4.758;2023-04-06T00:47:49;5.10;99.90
11615;DHT22;5863;52.832;4.758;2023-04-06T00:50:16;5.10;99.90
11615;DHT22;5863;52.832;4.758;2023-04-06T00:52:51;5.10;99.90
11615;DHT22;5863;52.832;4.758;2023-04-06T00:55:18;5.10;99.90
11615;DHT22;5863;52.832;4.758;2023-04-06T00:57:45;5.10;99.90
11615;DHT22;5863;52.832;4.758;2023-04-06T01:00:13;5.10;99.90
11615;DHT22;5863;52.832;4.758;2023-04-06T01:02:41;5.20;99.90
11615;DHT22;5863;52.832;4.758;2023-04-06T01:05:09;5.20;99.90
11615;DHT22;5863;52.832;4.758;2023-04-06T01:07:36;5.30;99.90
11615;DHT22;5863;52.832;4.758;2023-04-06T01:10:10;5.30;99.90
11615;DHT22;5863;52.832;4.758;2023-04-06T01:12:36;5.40;99.90
11615;DHT22;5863;52.832;4.758;2023-04-06T01:15:05;5.50;99.90
11615;DHT22;5863;52.832;4.758;2023-04-06T01:17:32;5.50;99.90
11615;DHT22;5863;52.832;4.758;2023-04-06T01:19:59;5.50;99.90
11615;DHT22;5863;52.832;4.758;2023-04-06T01:22:27;5.50;99.90
11615;DHT22;5863;52.832;4.758;2023-04-06T01:24:54;5.50;99.90
11615;DHT22;5863;52.832;4.758;2023-04-06T01:27:20;5.60;99.90
11615;DHT22;5863;52.832;4.758;2023-04-06T01:29:47;5.60;99.90
11615;DHT22;5863;52.832;4.758;2023-04-06T01:32:14;5.60;99.90
11615;DHT22;5863;52.832;4.758;2023-04-06T01:34:40;5.60;99.90
11615;DHT22;5863;52.832;4.758;2023-04-06T01:37:07;5.70;99.90
11615;DHT22;5863;52.832;4.758;2023-04-06T01:39:35;5.80;99.90
11615;DHT22;5863;52.832;4.758;2023-04-06T01:42:02;5.80;99.90
11615;DHT22;5863;52.832;4.758;2023-04-06T01:44:28;5.80;99.90
11615;DHT22;5863;52.832;4.758;2023-04-06T01:46:56;5.80;99.90
11615;DHT22;5863;52.832;4.758;2023-04-06T01:49:22;5.80;99.90
11615;DHT22;5863;52.832;4.758;2023-04-06T01:51:51;5.90;99.90
11615;DHT22;5863;52.832;4.758;2023-04-06T01:54:17;5.90;99.90
11615;DHT22;5863;52.832;4.758;2023-04-06T01:56:47;5.90;99.90
11615;DHT22;5863;52.832;4.758;2023-04-06T01:59:15;5.90;99.90
11615;DHT22;5863;52.832;4.758;2023-04-06T02:01:42;5.80;99.90
11615;DHT22;5863;52.832;4.758;2023-04-06T02:04:09;5.90;99.90
11615;DHT22;5863;52.832;4.758;2023-04-06T02:06:35;5.90;99.90
11615;DHT22;5863;52.832;4.758;2023-04-06T02:09:02;5.90;99.90
11615;DHT22;5863;52.832;4.758;2023-04-06T02:11:29;5.90;99.90
11615;DHT22;5863;52.832;4.758;2023-04-06T02:13:57;5.90;99.90
11615;DHT22;5863;52.832;4.758;2023-04-06T02:16:26;5.90;99.90
11615;DHT22;5863;52.832;4.758;2023-04-06T02:18:52;6.00;99.90
11615;DHT22;5863;52.832;4.758;2023-04-06T02:21:19;6.00;99.90
11615;DHT22;5863;52.832;4.758;2023-04-06T02:23:46;6.00;99.90
11615;DHT22;5863;52.832;4.758;2023-04-06T02:26:12;6.00;99.90
11615;DHT22;5863;52.832;4.758;2023-04-06T02:28:39;6.00;99.90
11615;DHT22;5863;52.832;4.758;2023-04-06T02:31:07;6.10;99.90
11615;DHT22;5863;52.832;4.758;2023-04-06T02:33:34;6.10;99.90
11615;DHT22;5863;52.832;4.758;2023-04-06T02:36:01;6.10;99.90
11615;DHT22;5863;52.832;4.758;2023-04-06T02:38:27;6.10;99.90
11615;DHT22;5863;52.832;4.758;2023-04-06T02:40:54;6.00;99.90
11615;DHT22;5863;52.832;4.758;2023-04-06T02:43:21;6.00;99.90
11615;DHT22;5863;52.832;4.758;2023-04-06T02:45:47;6.00;99.90
11615;DHT22;5863;52.832;4.758;2023-04-06T02:48:16;6.00;99.90
11615;DHT22;5863;52.832;4.758;2023-04-06T02:50:42;6.00;99.90
11615;DHT22;5863;52.832;4.758;2023-04-06T02:53:09;6.10;99.90
11615;DHT22;5863;52.832;4.758;2023-04-06T02:55:36;6.20;99.90
11615;DHT22;5863;52.832;4.758;2023-04-06T02:58:03;6.20;99.90
11615;DHT22;5863;52.832;4.758;2023-04-06T03:00:29;6.20;99.90
11615;DHT22;5863;52.832;4.758;2023-04-06T03:02:57;6.20;99.90
11615;DHT22;5863;52.832;4.758;2023-04-06T03:05:25;6.30;99.90
11615;DHT22;5863;52.832;4.758;2023-04-06T03:07:52;6.30;99.90
11615;DHT22;5863;52.832;4.758;2023-04-06T03:13:27;6.30;99.90
11615;DHT22;5863;52.832;4.758;2023-04-06T03:15:53;6.20;99.90
11615;DHT22;5863;52.832;4.758;2023-04-06T03:18:22;6.30;99.90
11615;DHT22;5863;52.832;4.758;2023-04-06T03:20:50;6.30;99.90
11615;DHT22;5863;52.832;4.758;2023-04-06T03:23:19;6.20;99.90
11615;DHT22;5863;52.832;4.758;2023-04-06T03:25:46;6.20;99.90
11615;DHT22;5863;52.832;4.758;2023-04-06T03:28:12;6.20;99.90
11615;DHT22;5863;52.832;4.758;2023-04-06T03:30:39;6.20;99.90
11615;DHT22;5863;52.832;4.758;2023-04-06T03:33:06;6.20;99.90
11615;DHT22;5863;52.832;4.758;2023-04-06T03:35:33;6.10;99.90
11615;DHT22;5863;52.832;4.758;2023-04-06T03:38:01;6.20;99.90
11615;DHT22;5863;52.832;4.758;2023-04-06T03:40:27;6.20;99.90
11615;DHT22;5863;52.832;4.758;2023-04-06T03:42:54;6.20;99.90
11615;DHT22;5863;52.832;4.758;2023-04-06T03:45:21;6.20;99.90
11615;DHT22;5863;52.832;4.758;2023-04-06T03:47:47;6.10;99.90
11615;DHT22;5863;52.832;4.758;2023-04-06T03:50:14;6.10;99.90
11615;DHT22;5863;52.832;4.758;2023-04-06T03:52:41;6.10;99.90
11615;DHT22;5863;52.832;4.758;2023-04-06T03:55:09;6.00;99.90
11615;DHT22;5863;52.832;4.758;2023-04-06T03:57:36;6.10;99.90
11615;DHT22;5863;52.832;4.758;2023-04-06T04:00:03;6.00;99.90
11615;DHT22;5863;52.832;4.758;2023-04-06T04:02:30;6.00;99.90
11615;DHT22;5863;52.832;4.758;2023-04-06T04:04:57;5.90;99.90
11615;DHT22;5863;52.832;4.758;2023-04-06T04:07:23;5.90;99.90
11615;DHT22;5863;52.832;4.758;2023-04-06T04:09:50;6.00;99.90
11615;DHT22;5863;52.832;4.758;2023-04-06T04:12:18;5.90;99.90
11615;DHT22;5863;52.832;4.758;2023-04-06T04:14:45;6.00;99.90
11615;DHT22;5863;52.832;4.758;2023-04-06T04:17:11;6.00;99.90
11615;DHT22;5863;52.832;4.758;2023-04-06T04:19:38;6.00;99.90
11615;DHT22;5863;52.832;4.758;2023-04-06T04:22:05;6.00;99.90
11615;DHT22;5863;52.832;4.758;2023-04-06T04:24:32;6.00;99.90
11615;DHT22;5863;52.832;4.758;2023-04-06T04:26:59;5.90;99.90
11615;DHT22;5863;52.832;4.758;2023-04-06T04:29:28;5.90;99.90
11615;DHT22;5863;52.832;4.758;2023-04-06T04:31:55;5.90;99.90
11615;DHT22;5863;52.832;4.758;2023-04-06T04:34:22;6.00;99.90
11615;DHT22;5863;52.832;4.758;2023-04-06T04:36:50;5.90;99.90
11615;DHT22;5863;52.832;4.758;2023-04-06T04:39:17;6.00;99.90
11615;DHT22;5863;52.832;4.758;2023-04-06T04:41:43;6.00;99.90
11615;DHT22;5863;52.832;4.758;2023-04-06T04:44:10;6.10;99.90
11615;DHT22;5863;52.832;4.758;2023-04-06T04:46:38;6.00;99.90
11615;DHT22;5863;52.832;4.758;2023-04-06T04:49:06;6.10;99.90
11615;DHT22;5863;52.832;4.758;2023-04-06T04:51:33;6.00;99.90
11615;DHT22;5863;52.832;4.758;2023-04-06T04:54:00;6.00;99.90
11615;DHT22;5863;52.832;4.758;2023-04-06T04:56:26;6.00;99.90
11615;DHT22;5863;52.832;4.758;2023-04-06T04:58:54;6.10;99.90
11615;DHT22;5863;52.832;4.758;2023-04-06T05:01:21;6.10;99.90
11615;DHT22;5863;52.832;4.758;2023-04-06T05:03:51;6.10;99.90
11615;DHT22;5863;52.832;4.758;2023-04-06T05:06:18;6.10;99.90
11615;DHT22;5863;52.832;4.758;2023-04-06T05:08:45;6.10;99.90
11615;DHT22;5863;52.832;4.758;2023-04-06T05:11:12;6.10;99.90
11615;DHT22;5863;52.832;4.758;2023-04-06T05:13:38;6.20;99.90
11615;DHT22;5863;52.832;4.758;2023-04-06T05:16:06;6.20;99.90
11615;DHT22;5863;52.832;4.758;2023-04-06T05:18:32;6.20;99.90
11615;DHT22;5863;52.832;4.758;2023-04-06T05:21:00;6.20;99.90
11615;DHT22;5863;52.832;4.758;2023-04-06T05:23:27;6.30;99.90
11615;DHT22;5863;52.832;4.758;2023-04-06T05:25:54;6.30;99.90
11615;DHT22;5863;52.832;4.758;2023-04-06T05:28:21;6.30;99.90
11615;DHT22;5863;52.832;4.758;2023-04-06T05:30:47;6.30;99.90
11615;DHT22;5863;52.832;4.758;2023-04-06T05:33:22;6.30;99.90
11615;DHT22;5863;52.832;4.758;2023-04-06T05:35:49;6.40;99.90
11615;DHT22;5863;52.832;4.758;2023-04-06T05:38:17;6.30;99.90
11615;DHT22;5863;52.832;4.758;2023-04-06T05:40:43;6.40;99.90
11615;DHT22;5863;52.832;4.758;2023-04-06T05:43:10;6.40;99.90
11615;DHT22;5863;52.832;4.758;2023-04-06T05:45:37;6.50;99.90
11615;DHT22;5863;52.832;4.758;2023-04-06T05:48:10;6.50;99.90
11615;DHT22;5863;52.832;4.758;2023-04-06T05:50:36;6.50;99.90
11615;DHT22;5863;52.832;4.758;2023-04-06T05:53:03;6.70;99.90
11615;DHT22;5863;52.832;4.758;2023-04-06T05:55:31;6.50;99.90
11615;DHT22;5863;52.832;4.758;2023-04-06T05:57:58;6.50;99.90
11615;DHT22;5863;52.832;4.758;2023-04-06T06:00:25;6.50;99.90
11615;DHT22;5863;52.832;4.758;2023-04-06T06:02:51;6.50;99.90
11615;DHT22;5863;52.832;4.758;2023-04-06T06:05:18;6.50;99.90
11615;DHT22;5863;52.832;4.758;2023-04-06T06:07:45;6.50;99.90
11615;DHT22;5863;52.832;4.758;2023-04-06T06:10:13;6.50;99.90
11615;DHT22;5863;52.832;4.758;2023-04-06T06:12:42;6.50;99.90
11615;DHT22;5863;52.832;4.758;2023-04-06T06:15:09;6.60;99.90
11615;DHT22;5863;52.832;4.758;2023-04-06T06:17:36;6.60;99.90
11615;DHT22;5863;52.832;4.758;2023-04-06T06:20:04;6.60;99.90
11615;DHT22;5863;52.832;4.758;2023-04-06T06:22:36;6.70;99.90
11615;DHT22;5863;52.832;4.758;2023-04-06T06:25:03;6.80;99.90
11615;DHT22;5863;52.832;4.758;2023-04-06T06:27:30;6.90;99.90
11615;DHT22;5863;52.832;4.758;2023-04-06T06:29:58;7.00;99.90
11615;DHT22;5863;52.832;4.758;2023-04-06T06:32:25;7.20;99.90
11615;DHT22;5863;52.832;4.758;2023-04-06T06:34:52;7.20;99.90
11615;DHT22;5863;52.832;4.758;2023-04-06T06:37:19;7.40;99.90
11615;DHT22;5863;52.832;4.758;2023-04-06T06:39:45;7.60;99.90
11615;DHT22;5863;52.832;4.758;2023-04-06T06:42:12;7.70;99.90
11615;DHT22;5863;52.832;4.758;2023-04-06T06:44:39;7.70;99.90
11615;DHT22;5863;52.832;4.758;2023-04-06T06:47:07;7.80;99.90
11615;DHT22;5863;52.832;4.758;2023-04-06T06:49:33;7.90;99.90
11615;DHT22;5863;52.832;4.758;2023-04-06T06:52:01;7.90;99.90
11615;DHT22;5863;52.832;4.758;2023-04-06T06:54:28;7.90;99.90
11615;DHT22;5863;52.832;4.758;2023-04-06T06:56:54;7.90;99.90
11615;DHT22;5863;52.832;4.758;2023-04-06T06:59:21;7.90;99.90
11615;DHT22;5863;52.832;4.758;2023-04-06T07:01:49;7.80;99.90
11615;DHT22;5863;52.832;4.758;2023-04-06T07:04:17;7.70;99.90
11615;DHT22;5863;52.832;4.758;2023-04-06T07:06:45;7.70;99.90
11615;DHT22;5863;52.832;4.758;2023-04-06T07:09:12;7.70;99.90
11615;DHT22;5863;52.832;4.758;2023-04-06T07:11:38;7.70;99.90
11615;DHT22;5863;52.832;4.758;2023-04-06T07:14:05;7.70;99.90
11615;DHT22;5863;52.832;4.758;2023-04-06T07:16:32;7.70;99.90
11615;DHT22;5863;52.832;4.758;2023-04-06T07:19:18;7.70;99.90
11615;DHT22;5863;52.832;4.758;2023-04-06T07:21:45;7.80;99.90
11615;DHT22;5863;52.832;4.758;2023-04-06T07:24:11;7.70;99.90
11615;DHT22;5863;52.832;4.758;2023-04-06T07:26:38;7.70;99.90
11615;DHT22;5863;52.832;4.758;2023-04-06T07:29:05;7.70;99.90
11615;DHT22;5863;52.832;4.758;2023-04-06T07:35:09;7.80;99.90
11615;DHT22;5863;52.832;4.758;2023-04-06T07:37:35;7.70;99.90
11615;DHT22;5863;52.832;4.758;2023-04-06T07:40:02;7.80;99.90
11615;DHT22;5863;52.832;4.758;2023-04-06T07:42:29;7.80;99.90
11615;DHT22;5863;52.832;4.758;2023-04-06T07:44:56;7.80;99.90
11615;DHT22;5863;52.832;4.758;2023-04-06T07:47:23;8.00;99.90
11615;DHT22;5863;52.832;4.758;2023-04-06T07:49:49;8.00;99.90
11615;DHT22;5863;52.832;4.758;2023-04-06T07:52:17;8.00;99.90
11615;DHT22;5863;52.832;4.758;2023-04-06T07:54:58;8.10;99.90
11615;DHT22;5863;52.832;4.758;2023-04-06T07:57:25;8.10;99.90
11615;DHT22;5863;52.832;4.758;2023-04-06T07:59:51;8.20;99.90
11615;DHT22;5863;52.832;4.758;2023-04-06T08:02:18;8.30;99.90
11615;DHT22;5863;52.832;4.758;2023-04-06T08:04:45;8.30;99.90
11615;DHT22;5863;52.832;4.758;2023-04-06T08:07:12;8.30;99.90
11615;DHT22;5863;52.832;4.758;2023-04-06T08:09:40;8.40;99.90
11615;DHT22;5863;52.832;4.758;2023-04-06T08:12:06;8.60;99.90
11615;DHT22;5863;52.832;4.758;2023-04-06T08:14:39;8.60;99.90
11615;DHT22;5863;52.832;4.758;2023-04-06T08:17:06;8.70;99.90
11615;DHT22;5863;52.832;4.758;2023-04-06T08:19:33;8.80;99.90
11615;DHT22;5863;52.832;4.758;2023-04-06T08:21:59;8.80;99.90
11615;DHT22;5863;52.832;4.758;2023-04-06T08:24:26;8.90;99.90
11615;DHT22;5863;52.832;4.758;2023-04-06T08:26:54;8.80;99.90
11615;DHT22;5863;52.832;4.758;2023-04-06T08:29:21;8.80;99.90
11615;DHT22;5863;52.832;4.758;2023-04-06T08:31:47;8.80;99.90
11615;DHT22;5863;52.832;4.758;2023-04-06T08:34:19;8.90;99.90
11615;DHT22;5863;52.832;4.758;2023-04-06T08:36:46;9.00;99.90
11615;DHT22;5863;52.832;4.758;2023-04-06T08:39:13;9.10;99.90
11615;DHT22;5863;52.832;4.758;2023-04-06T08:41:41;9.20;99.90
11615;DHT22;5863;52.832;4.758;2023-04-06T08:44:09;9.30;99.90
11615;DHT22;5863;52.832;4.758;2023-04-06T08:46:36;9.40;99.90
11615;DHT22;5863;52.832;4.758;2023-04-06T08:49:03;9.50;99.90
11615;DHT22;5863;52.832;4.758;2023-04-06T08:51:49;9.50;99.90
11615;DHT22;5863;52.832;4.758;2023-04-06T08:54:16;9.50;99.90
11615;DHT22;5863;52.832;4.758;2023-04-06T08:56:43;9.60;99.90
11615;DHT22;5863;52.832;4.758;2023-04-06T08:59:12;9.60;99.90
11615;DHT22;5863;52.832;4.758;2023-04-06T09:01:40;9.70;99.90
11615;DHT22;5863;52.832;4.758;2023-04-06T09:04:07;9.70;99.90
11615;DHT22;5863;52.832;4.758;2023-04-06T09:06:36;9.70;99.90
11615;DHT22;5863;52.832;4.758;2023-04-06T09:09:03;9.80;99.90
11615;DHT22;5863;52.832;4.758;2023-04-06T09:11:44;9.90;99.90
11615;DHT22;5863;52.832;4.758;2023-04-06T09:14:12;10.00;99.90
11615;DHT22;5863;52.832;4.758;2023-04-06T09:16:41;9.90;99.90
11615;DHT22;5863;52.832;4.758;2023-04-06T09:19:09;10.00;99.90
11615;DHT22;5863;52.832;4.758;2023-04-06T09:21:36;10.10;99.90
11615;DHT22;5863;52.832;4.758;2023-04-06T09:24:03;10.10;99.90
11615;DHT22;5863;52.832;4.758;2023-04-06T09:26:31;10.10;99.90
11615;DHT22;5863;52.832;4.758;2023-04-06T09:28:59;10.10;99.90
11615;DHT22;5863;52.832;4.758;2023-04-06T09:31:29;10.10;99.90
11615;DHT22;5863;52.832;4.758;2023-04-06T09:33:58;10.10;99.90
11615;DHT22;5863;52.832;4.758;2023-04-06T09:36:32;10.20;99.90
11615;DHT22;5863;52.832;4.758;2023-04-06T09:39:00;10.30;99.90
11615;DHT22;5863;52.832;4.758;2023-04-06T09:41:28;10.30;99.90
11615;DHT22;5863;52.832;4.758;2023-04-06T09:44:03;10.40;99.90
11615;DHT22;5863;52.832;4.758;2023-04-06T09:46:33;10.60;99.90
11615;DHT22;5863;52.832;4.758;2023-04-06T09:49:02;10.60;99.90
11615;DHT22;5863;52.832;4.758;2023-04-06T09:51:30;10.70;99.90
11615;DHT22;5863;52.832;4.758;2023-04-06T09:53:57;10.70;99.90
11615;DHT22;5863;52.832;4.758;2023-04-06T09:56:28;10.80;99.90
11615;DHT22;5863;52.832;4.758;2023-04-06T09:59:02;10.80;99.90
11615;DHT22;5863;52.832;4.758;2023-04-06T10:01:33;10.80;99.90
11615;DHT22;5863;52.832;4.758;2023-04-06T10:04:08;10.70;99.90
11615;DHT22;5863;52.832;4.758;2023-04-06T10:06:37;10.70;99.90
11615;DHT22;5863;52.832;4.758;2023-04-06T10:09:05;10.80;99.90
11615;DHT22;5863;52.832;4.758;2023-04-06T10:11:43;10.80;99.90
11615;DHT22;5863;52.832;4.758;2023-04-06T10:14:10;10.70;99.90
11615;DHT22;5863;52.832;4.758;2023-04-06T10:16:38;10.70;99.90
11615;DHT22;5863;52.832;4.758;2023-04-06T10:19:12;10.80;99.90
11615;DHT22;5863;52.832;4.758;2023-04-06T10:21:40;10.70;99.90
11615;DHT22;5863;52.832;4.758;2023-04-06T10:24:10;10.70;99.90
11615;DHT22;5863;52.832;4.758;2023-04-06T10:26:38;10.70;99.90
11615;DHT22;5863;52.832;4.758;2023-04-06T10:29:06;10.60;99.90
11615;DHT22;5863;52.832;4.758;2023-04-06T10:31:39;10.70;99.90
11615;DHT22;5863;52.832;4.758;2023-04-06T10:34:05;10.70;99.90
11615;DHT22;5863;52.832;4.758;2023-04-06T10:36:33;10.70;99.90
11615;DHT22;5863;52.832;4.758;2023-04-06T10:39:01;10.70;99.90
11615;DHT22;5863;52.832;4.758;2023-04-06T10:41:33;10.70;99.90
11615;DHT22;5863;52.832;4.758;2023-04-06T10:44:00;10.70;99.90
11615;DHT22;5863;52.832;4.758;2023-04-06T10:46:30;10.80;99.90
11615;DHT22;5863;52.832;4.758;2023-04-06T10:48:57;10.70;99.90
11615;DHT22;5863;52.832;4.758;2023-04-06T10:51:27;10.70;99.90
11615;DHT22;5863;52.832;4.758;2023-04-06T10:53:54;10.60;99.90
11615;DHT22;5863;52.832;4.758;2023-04-06T10:56:23;10.60;99.90
11615;DHT22;5863;52.832;4.758;2023-04-06T10:58:52;10.50;99.90
11615;DHT22;5863;52.832;4.758;2023-04-06T11:01:22;10.50;99.90
11615;DHT22;5863;52.832;4.758;2023-04-06T11:03:52;10.50;99.90
11615;DHT22;5863;52.832;4.758;2023-04-06T11:06:20;10.50;99.90
11615;DHT22;5863;52.832;4.758;2023-04-06T11:08:47;10.50;99.90
11615;DHT22;5863;52.832;4.758;2023-04-06T11:11:16;10.50;99.90
11615;DHT22;5863;52.832;4.758;2023-04-06T11:13:45;10.50;99.90
11615;DHT22;5863;52.832;4.758;2023-04-06T11:16:13;10.50;99.90
11615;DHT22;5863;52.832;4.758;2023-04-06T11:18:49;10.50;99.90
11615;DHT22;5863;52.832;4.758;2023-04-06T11:21:17;10.50;99.90
11615;DHT22;5863;52.832;4.758;2023-04-06T11:23:43;10.50;99.90
11615;DHT22;5863;52.832;4.758;2023-04-06T11:26:11;10.50;99.90
11615;DHT22;5863;52.832;4.758;2023-04-06T11:28:38;10.50;99.90
11615;DHT22;5863;52.832;4.758;2023-04-06T11:31:05;10.50;99.90
11615;DHT22;5863;52.832;4.758;2023-04-06T11:33:35;10.50;99.90
11615;DHT22;5863;52.832;4.758;2023-04-06T11:36:04;10.50;99.90
11615;DHT22;5863;52.832;4.758;2023-04-06T11:38:31;10.50;99.90
11615;DHT22;5863;52.832;4.758;2023-04-06T11:41:01;10.50;99.90
11615;DHT22;5863;52.832;4.758;2023-04-06T11:43:28;10.50;99.90
11615;DHT22;5863;52.832;4.758;2023-04-06T11:46:00;10.50;99.90
11615;DHT22;5863;52.832;4.758;2023-04-06T11:48:28;10.50;99.90
11615;DHT22;5863;52.832;4.758;2023-04-06T11:50:58;10.50;99.90
11615;DHT22;5863;52.832;4.758;2023-04-06T11:53:28;10.50;99.90
11615;DHT22;5863;52.832;4.758;2023-04-06T11:55:55;10.50;99.90
11615;DHT22;5863;52.832;4.758;2023-04-06T11:58:22;10.50;99.90
11615;DHT22;5863;52.832;4.758;2023-04-06T12:00:48;10.50;99.90
11615;DHT22;5863;52.832;4.758;2023-04-06T12:03:15;10.60;99.90
11615;DHT22;5863;52.832;4.758;2023-04-06T12:05:44;10.60;99.90
11615;DHT22;5863;52.832;4.758;2023-04-06T12:08:11;10.60;99.90
11615;DHT22;5863;52.832;4.758;2023-04-06T12:10:38;10.60;99.90
11615;DHT22;5863;52.832;4.758;2023-04-06T12:13:05;10.60;99.90
11615;DHT22;5863;52.832;4.758;2023-04-06T12:15:32;10.60;99.90
11615;DHT22;5863;52.832;4.758;2023-04-06T12:17:59;10.60;99.90
11615;DHT22;5863;52.832;4.758;2023-04-06T12:20:25;10.60;99.90
11615;DHT22;5863;52.832;4.758;2023-04-06T12:22:52;10.60;99.90
11615;DHT22;5863;52.832;4.758;2023-04-06T12:25:19;10.60;99.90
11615;DHT22;5863;52.832;4.758;2023-04-06T12:27:47;10.50;99.90
11615;DHT22;5863;52.832;4.758;2023-04-06T12:30:14;10.40;99.90
11615;DHT22;5863;52.832;4.758;2023-04-06T12:32:50;10.40;99.90
11615;DHT22;5863;52.832;4.758;2023-04-06T12:35:17;10.40;99.90
11615;DHT22;5863;52.832;4.758;2023-04-06T12:37:43;10.40;99.90
11615;DHT22;5863;52.832;4.758;2023-04-06T12:40:10;10.40;99.90
11615;DHT22;5863;52.832;4.758;2023-04-06T12:42:38;10.40;99.90
11615;DHT22;5863;52.832;4.758;2023-04-06T12:45:08;10.40;99.90
11615;DHT22;5863;52.832;4.758;2023-04-06T12:47:36;10.40;99.90
11615;DHT22;5863;52.832;4.758;2023-04-06T12:50:05;10.40;99.90
11615;DHT22;5863;52.832;4.758;2023-04-06T12:52:32;10.40;99.90
11615;DHT22;5863;52.832;4.758;2023-04-06T12:55:01;10.40;99.90
11615;DHT22;5863;52.832;4.758;2023-04-06T12:57:28;10.40;99.90
11615;DHT22;5863;52.832;4.758;2023-04-06T12:59:57;10.30;99.90
11615;DHT22;5863;52.832;4.758;2023-04-06T13:02:25;10.30;99.90
11615;DHT22;5863;52.832;4.758;2023-04-06T13:04:52;10.30;99.90
11615;DHT22;5863;52.832;4.758;2023-04-06T13:07:19;10.20;99.90
11615;DHT22;5863;52.832;4.758;2023-04-06T13:09:45;10.30;99.90
11615;DHT22;5863;52.832;4.758;2023-04-06T13:12:14;10.30;99.90
11615;DHT22;5863;52.832;4.758;2023-04-06T13:14:41;10.20;99.90
11615;DHT22;5863;52.832;4.758;2023-04-06T13:17:08;10.20;99.90
11615;DHT22;5863;52.832;4.758;2023-04-06T13:19:36;10.20;99.90
11615;DHT22;5863;52.832;4.758;2023-04-06T13:22:03;10.20;99.90
11615;DHT22;5863;52.832;4.758;2023-04-06T13:24:30;10.10;99.90
11615;DHT22;5863;52.832;4.758;2023-04-06T13:26:56;10.10;99.90
11615;DHT22;5863;52.832;4.758;2023-04-06T13:29:23;10.10;99.90
11615;DHT22;5863;52.832;4.758;2023-04-06T13:31:51;10.00;99.90
11615;DHT22;5863;52.832;4.758;2023-04-06T13:34:17;10.00;99.90
11615;DHT22;5863;52.832;4.758;2023-04-06T13:36:45;10.00;99.90
11615;DHT22;5863;52.832;4.758;2023-04-06T13:39:12;9.90;99.90
11615;DHT22;5863;52.832;4.758;2023-04-06T13:41:39;9.90;99.90
11615;DHT22;5863;52.832;4.758;2023-04-06T13:44:06;9.90;99.90
11615;DHT22;5863;52.832;4.758;2023-04-06T13:46:33;9.90;99.90
11615;DHT22;5863;52.832;4.758;2023-04-06T13:49:00;9.90;99.90
11615;DHT22;5863;52.832;4.758;2023-04-06T13:51:26;9.90;99.90
11615;DHT22;5863;52.832;4.758;2023-04-06T13:53:54;9.80;99.90
11615;DHT22;5863;52.832;4.758;2023-04-06T13:56:21;9.90;99.90
11615;DHT22;5863;52.832;4.758;2023-04-06T13:58:47;9.90;99.90
11615;DHT22;5863;52.832;4.758;2023-04-06T14:01:14;9.80;99.90
11615;DHT22;5863;52.832;4.758;2023-04-06T14:03:41;9.80;99.90
11615;DHT22;5863;52.832;4.758;2023-04-06T14:06:11;9.80;99.90
11615;DHT22;5863;52.832;4.758;2023-04-06T14:08:37;9.80;99.90
11615;DHT22;5863;52.832;4.758;2023-04-06T14:11:06;9.80;99.90
11615;DHT22;5863;52.832;4.758;2023-04-06T14:13:34;9.90;99.90
11615;DHT22;5863;52.832;4.758;2023-04-06T14:16:00;9.80;99.90
11615;DHT22;5863;52.832;4.758;2023-04-06T14:18:27;9.80;99.90
11615;DHT22;5863;52.832;4.758;2023-04-06T14:20:56;9.80;99.90
11615;DHT22;5863;52.832;4.758;2023-04-06T14:23:24;9.80;99.90
11615;DHT22;5863;52.832;4.758;2023-04-06T14:25:52;9.80;99.90
11615;DHT22;5863;52.832;4.758;2023-04-06T14:28:20;9.70;99.90
11615;DHT22;5863;52.832;4.758;2023-04-06T14:30:47;9.80;99.90
11615;DHT22;5863;52.832;4.758;2023-04-06T14:33:14;9.80;99.90
11615;DHT22;5863;52.832;4.758;2023-04-06T14:35:41;9.80;99.90
11615;DHT22;5863;52.832;4.758;2023-04-06T14:38:08;9.70;99.90
11615;DHT22;5863;52.832;4.758;2023-04-06T14:40:35;9.70;99.90
11615;DHT22;5863;52.832;4.758;2023-04-06T14:43:03;9.70;99.90
11615;DHT22;5863;52.832;4.758;2023-04-06T14:45:33;9.60;99.90
11615;DHT22;5863;52.832;4.758;2023-04-06T14:48:00;9.70;99.90
11615;DHT22;5863;52.832;4.758;2023-04-06T14:50:26;9.70;99.90
11615;DHT22;5863;52.832;4.758;2023-04-06T14:52:53;9.70;99.90
11615;DHT22;5863;52.832;4.758;2023-04-06T14:55:20;9.70;99.90
11615;DHT22;5863;52.832;4.758;2023-04-06T14:57:47;9.70;99.90
11615;DHT22;5863;52.832;4.758;2023-04-06T15:00:14;9.70;99.90
11615;DHT22;5863;52.832;4.758;2023-04-06T15:02:42;9.70;99.90
11615;DHT22;5863;52.832;4.758;2023-04-06T15:05:09;9.70;99.90
11615;DHT22;5863;52.832;4.758;2023-04-06T15:07:36;9.70;99.90
11615;DHT22;5863;52.832;4.758;2023-04-06T15:10:03;9.70;99.90
11615;DHT22;5863;52.832;4.758;2023-04-06T15:12:30;9.70;99.90
11615;DHT22;5863;52.832;4.758;2023-04-06T15:14:57;9.60;99.90
11615;DHT22;5863;52.832;4.758;2023-04-06T15:17:26;9.70;99.90
11615;DHT22;5863;52.832;4.758;2023-04-06T15:19:54;9.60;99.90
11615;DHT22;5863;52.832;4.758;2023-04-06T15:22:20;9.60;99.90
11615;DHT22;5863;52.832;4.758;2023-04-06T15:24:47;9.60;99.90
11615;DHT22;5863;52.832;4.758;2023-04-06T15:27:14;9.60;99.90
11615;DHT22;5863;52.832;4.758;2023-04-06T15:29:40;9.50;99.90
11615;DHT22;5863;52.832;4.758;2023-04-06T15:32:07;9.50;99.90
11615;DHT22;5863;52.832;4.758;2023-04-06T15:34:34;9.50;99.90
11615;DHT22;5863;52.832;4.758;2023-04-06T15:37:02;9.60;99.90
11615;DHT22;5863;52.832;4.758;2023-04-06T15:39:29;9.60;99.90
11615;DHT22;5863;52.832;4.758;2023-04-06T15:41:56;9.50;99.90
11615;DHT22;5863;52.832;4.758;2023-04-06T15:44:23;9.50;99.90
11615;DHT22;5863;52.832;4.758;2023-04-06T15:46:50;9.50;99.90
11615;DHT22;5863;52.832;4.758;2023-04-06T15:49:17;9.50;99.90
11615;DHT22;5863;52.832;4.758;2023-04-06T15:51:45;9.50;99.90
11615;DHT22;5863;52.832;4.758;2023-04-06T15:54:13;9.50;99.90
11615;DHT22;5863;52.832;4.758;2023-04-06T15:56:40;9.60;99.90
11615;DHT22;5863;52.832;4.758;2023-04-06T15:59:07;9.50;99.90
11615;DHT22;5863;52.832;4.758;2023-04-06T16:01:34;9.50;99.90
11615;DHT22;5863;52.832;4.758;2023-04-06T16:04:01;9.50;99.90
11615;DHT22;5863;52.832;4.758;2023-04-06T16:06:28;9.60;99.90